Main page
METAR-TAF:

METAR-TAF

Airports :

Fa'a'ā International Airport

Tahiti, French Polynesia

latitude: 17-33S, longitude: 149-37W, elevation: 2 m

Current weather observation

The report was made 14 minutes ago, at 23:30 UTC
Wind 5 kt from the Southwest, varying between South and West/Southwest
Temperature 30°C
Humidity 62%
Pressure 1013 hPa
Visibility 10 km or more
Few clouds at a height of 2500 ft
Broken clouds at a height of 6600 ft

METAR: NTAA 012330Z 23005KT 190V250 9999 FEW025 BKN066 30/22 Q1013 NOSIG

Time: 13:44 (23:44 UTC)

Forecast

The report was made 44 minutes ago, at 23:00 UTC
Forecast valid from 02 at 00 UTC to 03 at 06 UTC
Wind 5 kt from variable directions
Visibility 10 km or more
Few clouds at a height of 2600 ft
Scattered clouds at a height of 4500 ft

TAF: NTAA 012300Z 0200/0306 VRB05KT 9999 FEW026 SCT045

Weather observations and forecasts of more than 4000 airports (METAR and TAF reports).

The available stations are represented by yellow and red dots on the map.

Hover mouse over dot to see the name of the station.

Then click to see weather observations and forecasts.

To change the map : click on the green buttons with a black cross to zoom in, on the green button with a dash to zoom out, or on the green arrows for adjacent maps.


METAR-TAF: